Time;durP1;ratioP1;P1;durP2;ratioP2;P2;SDS_P1;SDS_P2;PMS_P1;PMS_P2;Temp;Humidity;BMP_temperature;BMP_pressure;BME280_temperature;BME280_humidity;BME280_pressure;Samples;Min_cycle;Max_cycle;Signal;HPM_P1;HPM_P2
2021/03/24 00:00:00;;;;;;;0.93;0.90;;;;;;;;;;5012238;28;20312;-69
2021/03/24 00:02:26;;;;;;;0.10;0.10;;;;;;;;;;5048283;28;20240;-69
2021/03/24 00:04:52;;;;;;;1.70;0.95;;;;;;;;;;5044555;28;20260;-69
2021/03/24 00:07:18;;;;;;;0.10;0.10;;;;;;;;;;5048654;28;20648;-69
2021/03/24 00:09:45;;;;;;;0.10;0.10;;;;;;;;;;5047698;28;20264;-69
2021/03/24 00:12:11;;;;;;;0.10;0.10;;;;;;;;;;5048520;28;20257;-69
2021/03/24 00:14:37;;;;;;;1.55;1.45;;;;;;;;;;5049988;28;20161;-69
2021/03/24 00:17:03;;;;;;;0.15;0.15;;;;;;;;;;5052323;28;20187;-69
2021/03/24 00:19:29;;;;;;;0.30;0.30;;;;;;;;;;5052181;28;20153;-69
2021/03/24 00:21:56;;;;;;;0.30;0.30;;;;;;;;;;5052259;28;20197;-69
2021/03/24 00:24:22;;;;;;;0.10;0.10;;;;;;;;;;5052133;28;20532;-69
2021/03/24 00:26:48;;;;;;;0.30;0.30;;;;;;;;;;5052094;28;20171;-69
2021/03/24 00:29:14;;;;;;;0.10;0.10;;;;;;;;;;5034324;28;20173;-68
2021/03/24 00:31:41;;;;;;;0.10;0.10;;;;;;;;;;5051897;28;20169;-70
2021/03/24 00:34:07;;;;;;;0.63;0.63;;;;;;;;;;5051872;28;20193;-69
2021/03/24 00:36:33;;;;;;;0.10;0.10;;;;;;;;;;5050182;28;20165;-69
2021/03/24 00:38:59;;;;;;;0.20;0.20;;;;;;;;;;5032078;28;20162;-69
2021/03/24 00:41:25;;;;;;;0.10;0.10;;;;;;;;;;5032007;28;20182;-69
2021/03/24 00:43:52;;;;;;;0.10;0.10;;;;;;;;;;5014219;28;20273;-69
2021/03/24 00:46:18;;;;;;;0.40;0.40;;;;;;;;;;5031912;28;20162;-69
2021/03/24 00:48:44;;;;;;;0.30;0.30;;;;;;;;;;5014054;28;20894;-69
2021/03/24 00:51:10;;;;;;;0.52;0.52;;;;;;;;;;5031874;28;20170;-69
2021/03/24 00:53:37;;;;;;;0.10;0.10;;;;;;;;;;5031590;28;20208;-69
2021/03/24 00:56:03;;;;;;;0.47;0.47;;;;;;;;;;5014052;28;20178;-69
2021/03/24 00:58:29;;;;;;;0.73;0.73;;;;;;;;;;5031674;28;20162;-68
2021/03/24 01:00:55;;;;;;;0.10;0.10;;;;;;;;;;5031603;28;20158;-69
2021/03/24 01:03:21;;;;;;;0.20;0.20;;;;;;;;;;5013583;28;20302;-69
2021/03/24 01:05:48;;;;;;;0.15;0.15;;;;;;;;;;5031497;28;20221;-69
2021/03/24 01:08:16;;;;;;;0.20;0.20;;;;;;;;;;5031491;28;20170;-69
2021/03/24 01:10:43;;;;;;;0.10;0.10;;;;;;;;;;5031432;28;20154;-69
2021/03/24 01:13:09;;;;;;;0.20;0.20;;;;;;;;;;5013788;28;20210;-69
2021/03/24 01:15:36;;;;;;;0.10;0.10;;;;;;;;;;5031141;28;20193;-69
2021/03/24 01:18:03;;;;;;;0.25;0.25;;;;;;;;;;5031286;28;20162;-69
2021/03/24 01:20:31;;;;;;;0.13;0.13;;;;;;;;;;5013748;28;20178;-69
2021/03/24 01:22:58;;;;;;;0.20;0.20;;;;;;;;;;5013563;28;20228;-69
2021/03/24 01:25:25;;;;;;;0.20;0.20;;;;;;;;;;5013355;28;20227;-69
2021/03/24 01:27:52;;;;;;;0.10;0.10;;;;;;;;;;5030706;28;20270;-68
2021/03/24 01:30:19;;;;;;;0.55;0.55;;;;;;;;;;5013340;28;20177;-69
2021/03/24 01:32:46;;;;;;;0.10;0.10;;;;;;;;;;5014342;28;20740;-69
2021/03/24 01:35:13;;;;;;;0.10;0.10;;;;;;;;;;5033003;28;20264;-69
2021/03/24 01:37:40;;;;;;;0.22;0.22;;;;;;;;;;5050699;28;20166;-69
2021/03/24 01:40:11;;;;;;;0.10;0.10;;;;;;;;;;5032831;28;20180;-69
2021/03/24 01:42:37;;;;;;;0.10;0.10;;;;;;;;;;5050598;28;20196;-69
2021/03/24 01:45:26;;;;;;;1.23;0.73;;;;;;;;;;5050660;28;20165;-69
2021/03/24 01:47:54;;;;;;;0.20;0.20;;;;;;;;;;5007880;28;20266;-68
2021/03/24 01:50:27;;;;;;;0.17;0.17;;;;;;;;;;5070493;28;20160;-69
2021/03/24 01:52:53;;;;;;;0.10;0.10;;;;;;;;;;5070324;28;20276;-69
2021/03/24 01:55:20;;;;;;;0.22;0.22;;;;;;;;;;5070467;28;20153;-68
2021/03/24 01:57:47;;;;;;;0.43;0.43;;;;;;;;;;5070412;28;20172;-68
2021/03/24 02:00:23;;;;;;;0.10;0.10;;;;;;;;;;5052411;28;20255;-69
2021/03/24 02:02:49;;;;;;;0.10;0.10;;;;;;;;;;5070149;28;20200;-69
2021/03/24 02:05:15;;;;;;;0.50;0.50;;;;;;;;;;5070269;28;20229;-69
2021/03/24 02:07:50;;;;;;;0.10;0.10;;;;;;;;;;5070146;28;20176;-68
2021/03/24 02:10:24;;;;;;;0.10;0.10;;;;;;;;;;5070044;28;20183;-68
2021/03/24 02:12:53;;;;;;;0.17;0.17;;;;;;;;;;5070002;28;20207;-69
2021/03/24 02:15:31;;;;;;;0.10;0.10;;;;;;;;;;5069494;28;20156;-69
2021/03/24 02:17:58;;;;;;;0.57;0.30;;;;;;;;;;5069809;28;20165;-69
2021/03/24 02:20:28;;;;;;;0.10;0.10;;;;;;;;;;5069986;28;20168;-69
2021/03/24 02:22:57;;;;;;;0.10;0.10;;;;;;;;;;5069813;28;20204;-69
2021/03/24 02:25:32;;;;;;;0.10;0.10;;;;;;;;;;5069837;28;20172;-68
2021/03/24 02:28:00;;;;;;;0.10;0.10;;;;;;;;;;5069867;28;20164;-69
2021/03/24 02:30:37;;;;;;;0.10;0.10;;;;;;;;;;5051809;28;20208;-69
2021/03/24 02:33:13;;;;;;;0.10;0.10;;;;;;;;;;5069721;28;20216;-68
2021/03/24 02:35:42;;;;;;;0.20;0.20;;;;;;;;;;5069650;28;20157;-68
2021/03/24 02:38:10;;;;;;;0.40;0.40;;;;;;;;;;5068808;28;20168;-68
2021/03/24 02:40:37;;;;;;;0.35;0.35;;;;;;;;;;5069594;28;20172;-69
2021/03/24 02:43:04;;;;;;;0.10;0.10;;;;;;;;;;5069579;28;20196;-68
2021/03/24 02:45:33;;;;;;;0.22;0.22;;;;;;;;;;5069548;28;20215;-69
2021/03/24 02:48:05;;;;;;;0.10;0.10;;;;;;;;;;5069318;28;20213;-68
2021/03/24 02:50:33;;;;;;;0.20;0.20;;;;;;;;;;5051559;28;20183;-69
2021/03/24 02:53:00;;;;;;;0.10;0.10;;;;;;;;;;5051491;28;20277;-69
2021/03/24 02:55:27;;;;;;;0.35;0.35;;;;;;;;;;5051470;28;20179;-69
2021/03/24 02:57:53;;;;;;;0.35;0.35;;;;;;;;;;5051477;28;20180;-68
2021/03/24 03:00:21;;;;;;;1.58;1.58;;;;;;;;;;5069335;28;20176;-69
2021/03/24 03:02:51;;;;;;;0.20;0.20;;;;;;;;;;5051348;28;20192;-68
2021/03/24 03:05:20;;;;;;;0.75;0.75;;;;;;;;;;5069191;28;20161;-69
2021/03/24 03:07:48;;;;;;;0.15;0.15;;;;;;;;;;5069215;28;20165;-68
2021/03/24 03:10:19;;;;;;;0.10;0.10;;;;;;;;;;5069298;28;20184;-69
2021/03/24 03:12:50;;;;;;;0.10;0.10;;;;;;;;;;5050401;28;20215;-69
2021/03/24 03:15:36;;;;;;;1.00;1.00;;;;;;;;;;5069101;28;20161;-69
2021/03/24 03:18:06;;;;;;;0.10;0.10;;;;;;;;;;5028587;28;20192;-69
2021/03/24 03:20:34;;;;;;;0.20;0.20;;;;;;;;;;5068662;28;20649;-69
2021/03/24 03:23:21;;;;;;;0.10;0.10;;;;;;;;;;5051231;28;20197;-69
2021/03/24 03:25:52;;;;;;;0.10;0.10;;;;;;;;;;5068833;28;20184;-69
2021/03/24 03:28:19;;;;;;;0.20;0.20;;;;;;;;;;5051127;28;20180;-69
2021/03/24 03:30:49;;;;;;;0.20;0.20;;;;;;;;;;5051045;28;20187;-69
2021/03/24 03:33:17;;;;;;;0.13;0.13;;;;;;;;;;5068583;28;20204;-69
2021/03/24 03:35:44;;;;;;;0.13;0.13;;;;;;;;;;5050811;28;20184;-69
2021/03/24 03:38:19;;;;;;;0.10;0.10;;;;;;;;;;5068858;28;20164;-69
2021/03/24 03:40:46;;;;;;;0.10;0.10;;;;;;;;;;5068710;28;20167;-69
2021/03/24 03:43:15;;;;;;;0.50;0.50;;;;;;;;;;5068846;28;20249;-69
2021/03/24 03:45:42;;;;;;;0.10;0.10;;;;;;;;;;5050687;28;20177;-69
2021/03/24 03:48:10;;;;;;;0.10;0.10;;;;;;;;;;5068638;28;20238;-69
2021/03/24 03:50:36;;;;;;;0.13;0.13;;;;;;;;;;5071724;28;20203;-68
2021/03/24 03:53:07;;;;;;;0.30;0.30;;;;;;;;;;5054356;28;20271;-69
2021/03/24 03:55:53;;;;;;;0.10;0.10;;;;;;;;;;5054633;28;20172;-69
2021/03/24 03:58:30;;;;;;;0.40;0.40;;;;;;;;;;5054468;28;20176;-69
2021/03/24 04:01:08;;;;;;;0.10;0.10;;;;;;;;;;5072273;28;20220;-68
2021/03/24 04:03:46;;;;;;;0.30;0.30;;;;;;;;;;5054448;28;20239;-69
2021/03/24 04:06:19;;;;;;;1.17;1.17;;;;;;;;;;5072279;28;20224;-68
2021/03/24 04:08:45;;;;;;;1.00;1.00;;;;;;;;;;5072289;28;20180;-69
2021/03/24 04:11:12;;;;;;;0.43;0.43;;;;;;;;;;5072180;28;20164;-68
2021/03/24 04:13:41;;;;;;;0.10;0.10;;;;;;;;;;5072063;28;20231;-68
2021/03/24 04:16:08;;;;;;;0.20;0.20;;;;;;;;;;5072027;28;20161;-69
2021/03/24 04:18:55;;;;;;;0.10;0.10;;;;;;;;;;5072192;28;20157;-69
2021/03/24 04:21:23;;;;;;;0.25;0.25;;;;;;;;;;5072076;28;20248;-69
2021/03/24 04:23:52;;;;;;;0.20;0.20;;;;;;;;;;5053726;28;20207;-68
2021/03/24 04:26:23;;;;;;;0.47;0.47;;;;;;;;;;5071934;28;20191;-68
2021/03/24 04:28:52;;;;;;;0.20;0.20;;;;;;;;;;5071928;28;20220;-69
2021/03/24 04:31:19;;;;;;;0.20;0.20;;;;;;;;;;5054013;28;20585;-69
2021/03/24 04:33:45;;;;;;;0.30;0.30;;;;;;;;;;5071639;28;20227;-69
2021/03/24 04:36:38;;;;;;;0.10;0.10;;;;;;;;;;5053881;28;20168;-69
2021/03/24 04:39:07;;;;;;;0.10;0.10;;;;;;;;;;5050090;28;20214;-68
2021/03/24 04:41:38;;;;;;;0.10;0.10;;;;;;;;;;5071644;28;20163;-69
2021/03/24 04:44:10;;;;;;;1.08;1.08;;;;;;;;;;5053432;28;20629;-68
2021/03/24 04:46:39;;;;;;;0.30;0.30;;;;;;;;;;5053726;28;20196;-68
2021/03/24 04:49:26;;;;;;;0.20;0.20;;;;;;;;;;5040080;28;20228;-68
2021/03/24 04:51:54;;;;;;;0.50;0.50;;;;;;;;;;5051516;28;20157;-68
2021/03/24 04:54:34;;;;;;;0.55;0.52;;;;;;;;;;5033402;28;20220;-68
2021/03/24 04:57:07;;;;;;;0.30;0.30;;;;;;;;;;5051160;28;20172;-69
2021/03/24 04:59:42;;;;;;;0.10;0.10;;;;;;;;;;5051126;28;20165;-68
2021/03/24 05:02:23;;;;;;;0.50;0.50;;;;;;;;;;5032351;28;20200;-69
2021/03/24 05:04:55;;;;;;;0.20;0.20;;;;;;;;;;5051321;28;20165;-68
2021/03/24 05:07:41;;;;;;;0.45;0.45;;;;;;;;;;5033393;28;20185;-68
2021/03/24 05:10:08;;;;;;;0.13;0.13;;;;;;;;;;5050904;28;20219;-69
2021/03/24 05:12:39;;;;;;;0.10;0.10;;;;;;;;;;5033036;28;20281;-69
2021/03/24 05:15:26;;;;;;;0.20;0.20;;;;;;;;;;5051064;28;20169;-69
2021/03/24 05:17:54;;;;;;;0.10;0.10;;;;;;;;;;5050365;28;20185;-68
2021/03/24 05:20:32;;;;;;;0.85;0.85;;;;;;;;;;5033170;28;20547;-69
2021/03/24 05:22:59;;;;;;;0.20;0.20;;;;;;;;;;5050578;28;20189;-69
2021/03/24 05:25:28;;;;;;;0.13;0.13;;;;;;;;;;5050809;28;20193;-68
2021/03/24 05:27:59;;;;;;;0.50;0.50;;;;;;;;;;5032839;28;20197;-69
2021/03/24 05:30:33;;;;;;;0.30;0.30;;;;;;;;;;5050721;28;20173;-69
2021/03/24 05:33:05;;;;;;;0.80;0.80;;;;;;;;;;5032604;28;20208;-69
2021/03/24 05:35:32;;;;;;;0.20;0.20;;;;;;;;;;5050607;28;20158;-69
2021/03/24 05:38:06;;;;;;;1.20;1.20;;;;;;;;;;5032668;28;20169;-69
2021/03/24 05:40:50;;;;;;;0.10;0.10;;;;;;;;;;5050319;28;20157;-69
2021/03/24 05:43:29;;;;;;;4.05;1.30;;;;;;;;;;5032364;28;20196;-69
2021/03/24 05:46:01;;;;;;;0.30;0.30;;;;;;;;;;5049863;28;20169;-69
2021/03/24 05:48:30;;;;;;;0.10;0.10;;;;;;;;;;5032510;28;20259;-69
2021/03/24 05:50:56;;;;;;;0.10;0.10;;;;;;;;;;5031748;28;20181;-69
2021/03/24 05:53:46;;;;;;;0.17;0.17;;;;;;;;;;5032154;28;20297;-69
2021/03/24 05:56:31;;;;;;;0.20;0.20;;;;;;;;;;5050305;28;20162;-69
2021/03/24 05:59:09;;;;;;;0.63;0.63;;;;;;;;;;5032280;28;20204;-69
2021/03/24 06:01:44;;;;;;;0.45;0.45;;;;;;;;;;5050133;28;20166;-69
2021/03/24 06:04:36;;;;;;;0.13;0.13;;;;;;;;;;5049850;28;20157;-69
2021/03/24 06:07:08;;;;;;;0.10;0.10;;;;;;;;;;4949878;29;20227;-69
2021/03/24 06:09:46;;;;;;;0.57;0.57;;;;;;;;;;4950129;29;20177;-68
2021/03/24 06:12:24;;;;;;;0.17;0.17;;;;;;;;;;4949494;29;20271;-68
2021/03/24 06:15:05;;;;;;;0.10;0.10;;;;;;;;;;4949784;29;20196;-69
2021/03/24 06:17:39;;;;;;;0.20;0.20;;;;;;;;;;4949331;29;20188;-69
2021/03/24 06:20:18;;;;;;;0.65;0.65;;;;;;;;;;4950131;29;20172;-69
2021/03/24 06:23:02;;;;;;;0.20;0.20;;;;;;;;;;4949742;29;20605;-69
2021/03/24 06:25:49;;;;;;;0.35;0.35;;;;;;;;;;4949820;29;20192;-69
2021/03/24 06:28:30;;;;;;;0.17;0.17;;;;;;;;;;4949575;29;20200;-68
2021/03/24 06:31:08;;;;;;;0.10;0.10;;;;;;;;;;4949786;29;20204;-69
2021/03/24 06:33:37;;;;;;;0.30;0.30;;;;;;;;;;4949597;29;20219;-69
2021/03/24 06:36:21;;;;;;;2.08;1.30;;;;;;;;;;4949898;29;20171;-69
2021/03/24 06:38:51;;;;;;;0.25;0.25;;;;;;;;;;4949332;29;20168;-69
2021/03/24 06:41:28;;;;;;;0.10;0.10;;;;;;;;;;4949591;29;20169;-68
2021/03/24 06:44:09;;;;;;;0.38;0.38;;;;;;;;;;5001796;28;20212;-68
2021/03/24 06:46:41;;;;;;;0.20;0.20;;;;;;;;;;5049237;28;20169;-68
2021/03/24 06:49:32;;;;;;;0.30;0.30;;;;;;;;;;5060338;28;20232;-69
2021/03/24 06:52:34;;;;;;;0.13;0.13;;;;;;;;;;5068601;28;20204;-69
2021/03/24 06:55:18;;;;;;;3.10;1.17;;;;;;;;;;4987350;28;20245;-69
2021/03/24 06:57:55;;;;;;;0.10;0.10;;;;;;;;;;4987400;28;20275;-69
2021/03/24 07:00:42;;;;;;;0.30;0.30;;;;;;;;;;4971467;28;20296;-69
2021/03/24 07:03:31;;;;;;;0.57;0.57;;;;;;;;;;4977420;28;20254;-69
2021/03/24 07:06:03;;;;;;;0.25;0.25;;;;;;;;;;4971344;28;20167;-70
2021/03/24 07:08:48;;;;;;;0.55;0.55;;;;;;;;;;4971109;28;20195;-68
2021/03/24 07:11:33;;;;;;;0.60;0.60;;;;;;;;;;4987432;28;20168;-68
2021/03/24 07:14:18;;;;;;;0.80;0.80;;;;;;;;;;4970970;28;20203;-68
2021/03/24 07:17:03;;;;;;;1.13;1.13;;;;;;;;;;4987618;28;20303;-68
2021/03/24 07:19:52;;;;;;;1.33;1.33;;;;;;;;;;4987323;28;20207;-69
2021/03/24 07:22:33;;;;;;;0.38;0.38;;;;;;;;;;4961052;28;20339;-68
2021/03/24 07:25:18;;;;;;;1.25;1.17;;;;;;;;;;4989337;28;20175;-68
2021/03/24 07:27:57;;;;;;;2.65;1.65;;;;;;;;;;4975548;28;20178;-68
2021/03/24 07:30:39;;;;;;;0.70;0.70;;;;;;;;;;5072687;28;20191;-68
2021/03/24 07:33:10;;;;;;;0.80;0.80;;;;;;;;;;5072138;28;20545;-68
2021/03/24 07:35:39;;;;;;;1.23;1.17;;;;;;;;;;5072376;28;20153;-68
2021/03/24 07:38:05;;;;;;;0.35;0.35;;;;;;;;;;5072438;28;20229;-68
2021/03/24 07:40:37;;;;;;;1.45;1.35;;;;;;;;;;5072288;28;20196;-68
2021/03/24 07:43:22;;;;;;;1.10;1.02;;;;;;;;;;5054012;28;20223;-68
2021/03/24 07:45:51;;;;;;;4.93;1.23;;;;;;;;;;5070747;28;20168;-69
2021/03/24 07:48:26;;;;;;;0.90;0.90;;;;;;;;;;5071000;28;20239;-68
2021/03/24 07:50:59;;;;;;;1.05;1.05;;;;;;;;;;5053306;28;20180;-69
2021/03/24 07:53:33;;;;;;;1.27;1.25;;;;;;;;;;5071617;28;20265;-68
2021/03/24 07:56:11;;;;;;;0.90;0.88;;;;;;;;;;5071953;28;20164;-69
2021/03/24 07:59:03;;;;;;;1.92;1.35;;;;;;;;;;5072197;28;20165;-69
2021/03/24 08:01:48;;;;;;;0.63;0.63;;;;;;;;;;5067733;28;20193;-69
2021/03/24 08:04:27;;;;;;;0.08;0.08;;;;;;;;;;5072204;28;20260;-69
2021/03/24 08:06:53;;;;;;;3.33;1.23;;;;;;;;;;5072141;28;20173;-68
2021/03/24 08:09:24;;;;;;;2.65;1.38;;;;;;;;;;5072000;28;20176;-69
2021/03/24 08:12:22;;;;;;;0.13;0.13;;;;;;;;;;5071874;28;20204;-70
2021/03/24 08:14:50;;;;;;;0.10;0.10;;;;;;;;;;5021330;28;20206;-69
2021/03/24 08:17:30;;;;;;;0.47;0.47;;;;;;;;;;5070915;28;20169;-69
2021/03/24 08:20:11;;;;;;;0.52;0.40;;;;;;;;;;5071390;28;20169;-69
2021/03/24 08:22:40;;;;;;;0.00;0.00;;;;;;;;;;5071525;28;20185;-69
2021/03/24 08:25:22;;;;;;;0.40;0.32;;;;;;;;;;5053780;28;20169;-69
2021/03/24 08:27:54;;;;;;;0.17;0.17;;;;;;;;;;5071763;28;20180;-69
2021/03/24 08:30:23;;;;;;;0.10;0.10;;;;;;;;;;5053467;28;20699;-69
2021/03/24 08:33:08;;;;;;;0.38;0.38;;;;;;;;;;5071445;28;20291;-69
2021/03/24 08:35:43;;;;;;;0.57;0.57;;;;;;;;;;5070194;28;20163;-69
2021/03/24 08:38:28;;;;;;;0.47;0.47;;;;;;;;;;5071363;28;20208;-69
2021/03/24 08:41:03;;;;;;;0.50;0.50;;;;;;;;;;5053360;28;20177;-69
2021/03/24 08:43:42;;;;;;;0.13;0.13;;;;;;;;;;5071142;28;20195;-68
2021/03/24 08:46:14;;;;;;;0.10;0.10;;;;;;;;;;5071337;28;20161;-67
2021/03/24 08:49:03;;;;;;;0.55;0.55;;;;;;;;;;5071163;28;20220;-68
2021/03/24 08:51:35;;;;;;;0.30;0.30;;;;;;;;;;5042254;28;20199;-69
2021/03/24 08:54:20;;;;;;;0.10;0.10;;;;;;;;;;5063032;28;20219;-68
2021/03/24 08:57:05;;;;;;;0.20;0.20;;;;;;;;;;5051084;28;20180;-70
2021/03/24 08:59:50;;;;;;;0.45;0.45;;;;;;;;;;5032820;28;20166;-69
2021/03/24 09:02:21;;;;;;;0.93;0.50;;;;;;;;;;5050630;28;20192;-69
2021/03/24 09:04:54;;;;;;;0.20;0.20;;;;;;;;;;5033278;28;20170;-69
2021/03/24 09:07:39;;;;;;;0.10;0.10;;;;;;;;;;5050438;28;20528;-69
2021/03/24 09:10:09;;;;;;;0.13;0.13;;;;;;;;;;5050366;28;20166;-69
2021/03/24 09:12:43;;;;;;;1.55;0.43;;;;;;;;;;5076215;28;20214;-68
2021/03/24 09:15:32;;;;;;;0.13;0.13;;;;;;;;;;5090909;28;20171;-69
2021/03/24 09:18:10;;;;;;;0.00;0.00;;;;;;;;;;5077007;28;20192;-68
2021/03/24 09:20:45;;;;;;;2.20;0.95;;;;;;;;;;5070821;28;20187;-69
2021/03/24 09:23:30;;;;;;;0.47;0.47;;;;;;;;;;5052102;28;20206;-68
2021/03/24 09:26:05;;;;;;;0.20;0.20;;;;;;;;;;5070536;28;20171;-69
2021/03/24 09:28:37;;;;;;;0.28;0.28;;;;;;;;;;5052782;28;20194;-69
2021/03/24 09:31:22;;;;;;;0.20;0.20;;;;;;;;;;5070169;28;20191;-68
2021/03/24 09:33:54;;;;;;;1.27;0.85;;;;;;;;;;5070118;28;20220;-68
2021/03/24 09:36:35;;;;;;;0.38;0.25;;;;;;;;;;5070557;28;20212;-69
2021/03/24 09:39:08;;;;;;;0.10;0.10;;;;;;;;;;5070037;28;20152;-68
2021/03/24 09:41:42;;;;;;;9.63;0.95;;;;;;;;;;5070234;28;20168;-68
2021/03/24 09:44:12;;;;;;;0.20;0.20;;;;;;;;;;5069513;28;20195;-68
2021/03/24 09:46:52;;;;;;;0.90;0.25;;;;;;;;;;5051759;28;20207;-68
2021/03/24 09:49:31;;;;;;;0.17;0.17;;;;;;;;;;5055091;28;20235;-68
2021/03/24 09:52:16;;;;;;;0.05;0.05;;;;;;;;;;5050274;28;20586;-68
2021/03/24 09:55:00;;;;;;;0.68;0.60;;;;;;;;;;5032277;28;20211;-68
2021/03/24 09:57:33;;;;;;;0.50;0.50;;;;;;;;;;5050156;28;20250;-68
2021/03/24 10:00:06;;;;;;;0.47;0.47;;;;;;;;;;5031524;28;20264;-68
2021/03/24 10:02:37;;;;;;;2.03;1.10;;;;;;;;;;5049585;28;20239;-67
2021/03/24 10:05:06;;;;;;;0.55;0.45;;;;;;;;;;5049988;28;20175;-68
2021/03/24 10:07:38;;;;;;;0.25;0.25;;;;;;;;;;5032085;28;20188;-68
2021/03/24 10:10:09;;;;;;;0.10;0.10;;;;;;;;;;5049913;28;20224;-68
2021/03/24 10:12:38;;;;;;;0.30;0.30;;;;;;;;;;5049635;28;20599;-68
2021/03/24 10:15:04;;;;;;;0.10;0.10;;;;;;;;;;5032079;28;20165;-68
2021/03/24 10:17:40;;;;;;;0.50;0.50;;;;;;;;;;5031544;28;20196;-68
2021/03/24 10:20:15;;;;;;;0.00;0.00;;;;;;;;;;5049726;28;20193;-68
2021/03/24 10:23:00;;;;;;;0.50;0.50;;;;;;;;;;5049438;28;20196;-68
2021/03/24 10:25:35;;;;;;;0.75;0.68;;;;;;;;;;5049595;28;20225;-67
2021/03/24 10:28:21;;;;;;;0.00;0.00;;;;;;;;;;5049505;28;20185;-68
2021/03/24 10:30:58;;;;;;;0.10;0.10;;;;;;;;;;5049155;28;20208;-69
2021/03/24 10:33:32;;;;;;;0.52;0.35;;;;;;;;;;5049103;28;20192;-68
2021/03/24 10:36:04;;;;;;;0.55;0.38;;;;;;;;;;5049263;28;20169;-68
2021/03/24 10:38:41;;;;;;;0.28;0.28;;;;;;;;;;5048843;28;20179;-68
2021/03/24 10:41:07;;;;;;;0.10;0.10;;;;;;;;;;5049157;28;20153;-68
2021/03/24 10:43:36;;;;;;;0.57;0.52;;;;;;;;;;5031029;28;20200;-68
2021/03/24 10:46:02;;;;;;;0.00;0.00;;;;;;;;;;5049022;28;20188;-68
2021/03/24 10:48:32;;;;;;;8.48;0.55;;;;;;;;;;5043205;28;20219;-68
2021/03/24 10:51:06;;;;;;;0.40;0.40;;;;;;;;;;5067636;28;20180;-68
2021/03/24 10:53:36;;;;;;;0.10;0.10;;;;;;;;;;5068469;28;20213;-68
2021/03/24 10:56:17;;;;;;;0.63;0.60;;;;;;;;;;5068466;28;20232;-68
2021/03/24 10:58:55;;;;;;;0.40;0.40;;;;;;;;;;5068126;28;20198;-68
2021/03/24 11:01:24;;;;;;;0.20;0.20;;;;;;;;;;5067609;28;20229;-68
2021/03/24 11:04:09;;;;;;;1.33;0.03;;;;;;;;;;5068838;28;20218;-68
2021/03/24 11:06:42;;;;;;;0.70;0.70;;;;;;;;;;5069000;28;20160;-69
2021/03/24 11:09:15;;;;;;;0.90;0.52;;;;;;;;;;5068733;28;20167;-69
2021/03/24 11:11:48;;;;;;;0.40;0.40;;;;;;;;;;5068877;28;20164;-69
2021/03/24 11:14:17;;;;;;;0.30;0.30;;;;;;;;;;5068629;28;20283;-69
2021/03/24 11:16:51;;;;;;;0.15;0.15;;;;;;;;;;5067355;28;20165;-69
2021/03/24 11:19:36;;;;;;;0.20;0.20;;;;;;;;;;5068505;28;20167;-69
2021/03/24 11:22:21;;;;;;;0.22;0.22;;;;;;;;;;5068250;28;20175;-69
2021/03/24 11:24:50;;;;;;;0.57;0.57;;;;;;;;;;5067390;28;20659;-69
2021/03/24 11:27:22;;;;;;;0.10;0.10;;;;;;;;;;5068634;28;20164;-70
2021/03/24 11:29:52;;;;;;;2.63;0.50;;;;;;;;;;5068755;28;20160;-69
2021/03/24 11:32:30;;;;;;;0.52;0.35;;;;;;;;;;5068610;28;20164;-70
2021/03/24 11:35:00;;;;;;;0.25;0.25;;;;;;;;;;5067375;28;20179;-70
2021/03/24 11:37:45;;;;;;;0.20;0.20;;;;;;;;;;5068442;28;20177;-69
2021/03/24 11:40:30;;;;;;;0.63;0.63;;;;;;;;;;5067025;28;20175;-70
2021/03/24 11:43:19;;;;;;;0.32;0.32;;;;;;;;;;5068382;28;20196;-69
2021/03/24 11:45:45;;;;;;;1.85;0.95;;;;;;;;;;5058226;28;20206;-70
2021/03/24 11:48:23;;;;;;;1.73;0.80;;;;;;;;;;5062719;28;20225;-69
2021/03/24 11:50:58;;;;;;;4.00;0.95;;;;;;;;;;5048443;28;20191;-69
2021/03/24 11:53:36;;;;;;;5.28;0.65;;;;;;;;;;5048213;28;20200;-69
2021/03/24 11:56:22;;;;;;;0.50;0.50;;;;;;;;;;5030522;28;20188;-69
2021/03/24 11:58:51;;;;;;;0.30;0.30;;;;;;;;;;5037980;28;20205;-69
2021/03/24 12:01:24;;;;;;;0.47;0.47;;;;;;;;;;5030583;28;20191;-69
2021/03/24 12:03:50;;;;;;;0.17;0.17;;;;;;;;;;5048240;28;20188;-69
2021/03/24 12:06:23;;;;;;;0.28;0.25;;;;;;;;;;5048425;28;20164;-69
2021/03/24 12:09:02;;;;;;;0.20;0.20;;;;;;;;;;5030169;28;20244;-68
2021/03/24 12:11:30;;;;;;;0.20;0.20;;;;;;;;;;5049167;28;20149;-69
2021/03/24 12:14:12;;;;;;;0.32;0.32;;;;;;;;;;5051612;28;20220;-68
2021/03/24 12:16:43;;;;;;;0.40;0.40;;;;;;;;;;5034025;28;20176;-68
2021/03/24 12:19:48;;;;;;;1.67;1.02;;;;;;;;;;5051697;28;20153;-68
2021/03/24 12:22:31;;;;;;;0.30;0.30;;;;;;;;;;4974153;28;20179;-68
2021/03/24 12:25:09;;;;;;;0.30;0.25;;;;;;;;;;4990553;28;20169;-68
2021/03/24 12:27:41;;;;;;;0.25;0.25;;;;;;;;;;4990383;28;20194;-68
2021/03/24 12:30:17;;;;;;;0.47;0.47;;;;;;;;;;4990345;28;20167;-67
2021/03/24 12:32:43;;;;;;;0.35;0.22;;;;;;;;;;4989026;28;20221;-68
2021/03/24 12:35:18;;;;;;;0.20;0.20;;;;;;;;;;4989981;28;20202;-67
2021/03/24 12:37:46;;;;;;;0.32;0.32;;;;;;;;;;4990383;28;20175;-68
2021/03/24 12:40:19;;;;;;;0.52;0.52;;;;;;;;;;4989617;28;20183;-68
2021/03/24 12:42:46;;;;;;;1.48;1.38;;;;;;;;;;4990062;28;20246;-69
2021/03/24 12:45:27;;;;;;;0.63;0.63;;;;;;;;;;4989462;28;20167;-69
2021/03/24 12:48:02;;;;;;;0.47;0.47;;;;;;;;;;4995287;28;20237;-67
2021/03/24 12:50:29;;;;;;;0.10;0.10;;;;;;;;;;5029427;28;20162;-68
2021/03/24 12:53:02;;;;;;;0.65;0.55;;;;;;;;;;5037995;28;20240;-68
2021/03/24 12:55:28;;;;;;;4.05;0.25;;;;;;;;;;5071183;28;20161;-68
2021/03/24 12:58:03;;;;;;;0.10;0.10;;;;;;;;;;5070912;28;20175;-68
2021/03/24 13:00:43;;;;;;;0.88;0.60;;;;;;;;;;5069391;28;20175;-68
2021/03/24 13:03:27;;;;;;;0.20;0.20;;;;;;;;;;5070096;28;20185;-69
2021/03/24 13:06:12;;;;;;;0.17;0.17;;;;;;;;;;5069675;28;20172;-68
2021/03/24 13:08:47;;;;;;;0.40;0.40;;;;;;;;;;5070981;28;20164;-68
2021/03/24 13:11:19;;;;;;;1.08;0.45;;;;;;;;;;5069712;28;20176;-68
2021/03/24 13:14:11;;;;;;;0.17;0.17;;;;;;;;;;5070712;28;20264;-68
2021/03/24 13:16:41;;;;;;;0.82;0.82;;;;;;;;;;5032087;28;20188;-68
2021/03/24 13:19:21;;;;;;;0.40;0.35;;;;;;;;;;5070670;28;20241;-69
2021/03/24 13:21:51;;;;;;;0.20;0.20;;;;;;;;;;5068518;28;20172;-68
2021/03/24 13:24:20;;;;;;;0.28;0.20;;;;;;;;;;5069021;28;20211;-69
2021/03/24 13:26:47;;;;;;;0.08;0.08;;;;;;;;;;5070484;28;20156;-68
2021/03/24 13:29:28;;;;;;;0.08;0.08;;;;;;;;;;5069188;28;20207;-68
2021/03/24 13:31:54;;;;;;;0.52;0.47;;;;;;;;;;5070266;28;20168;-69
2021/03/24 13:34:33;;;;;;;0.43;0.43;;;;;;;;;;5070191;28;20224;-68
2021/03/24 13:37:00;;;;;;;0.20;0.20;;;;;;;;;;5070366;28;20164;-69
2021/03/24 13:39:30;;;;;;;0.40;0.40;;;;;;;;;;5070212;28;20163;-68
2021/03/24 13:42:00;;;;;;;0.35;0.35;;;;;;;;;;5070111;28;20161;-68
2021/03/24 13:44:31;;;;;;;0.10;0.10;;;;;;;;;;5068931;28;20267;-68
2021/03/24 13:47:00;;;;;;;0.10;0.10;;;;;;;;;;5068969;28;20165;-68
2021/03/24 13:49:38;;;;;;;0.05;0.05;;;;;;;;;;5054269;28;20587;-68
2021/03/24 13:52:24;;;;;;;0.10;0.10;;;;;;;;;;5032314;28;20192;-68
2021/03/24 13:55:03;;;;;;;0.25;0.25;;;;;;;;;;5039422;28;20260;-68
2021/03/24 13:57:29;;;;;;;0.45;0.45;;;;;;;;;;5050067;28;20170;-68
2021/03/24 14:00:13;;;;;;;0.10;0.10;;;;;;;;;;5031917;28;20281;-68
2021/03/24 14:03:02;;;;;;;0.20;0.20;;;;;;;;;;5046062;28;20209;-69
2021/03/24 14:05:34;;;;;;;0.15;0.15;;;;;;;;;;5004220;28;20414;-68
2021/03/24 14:08:01;;;;;;;0.90;0.90;;;;;;;;;;5029999;28;20166;-68
2021/03/24 14:10:31;;;;;;;0.25;0.25;;;;;;;;;;5012371;28;20293;-69
2021/03/24 14:13:16;;;;;;;0.38;0.35;;;;;;;;;;5013019;28;20198;-68
2021/03/24 14:15:45;;;;;;;0.10;0.10;;;;;;;;;;5029530;28;20162;-68
2021/03/24 14:18:11;;;;;;;2.08;0.70;;;;;;;;;;5036863;28;20236;-68
2021/03/24 14:20:47;;;;;;;0.00;0.00;;;;;;;;;;5031565;28;20214;-69
2021/03/24 14:23:17;;;;;;;0.00;0.00;;;;;;;;;;5031567;28;20228;-69
2021/03/24 14:25:43;;;;;;;0.08;0.08;;;;;;;;;;5031458;28;20173;-70
2021/03/24 14:28:39;;;;;;;0.10;0.10;;;;;;;;;;5049192;28;20165;-69
2021/03/24 14:31:26;;;;;;;0.10;0.10;;;;;;;;;;5018863;28;20195;-71
2021/03/24 14:34:02;;;;;;;0.22;0.22;;;;;;;;;;5031523;28;20201;-71
2021/03/24 14:36:28;;;;;;;0.00;0.00;;;;;;;;;;5039682;28;20185;-70
2021/03/24 14:39:06;;;;;;;0.10;0.10;;;;;;;;;;5025154;28;20191;-70
2021/03/24 14:41:53;;;;;;;0.00;0.00;;;;;;;;;;5031353;28;20169;-70
2021/03/24 14:44:38;;;;;;;0.00;0.00;;;;;;;;;;5027941;28;20205;-71
2021/03/24 14:47:10;;;;;;;0.43;0.43;;;;;;;;;;5028833;28;20166;-71
2021/03/24 14:49:42;;;;;;;0.10;0.10;;;;;;;;;;5011567;28;20253;-70
2021/03/24 14:52:29;;;;;;;0.35;0.35;;;;;;;;;;5032315;28;20189;-70
2021/03/24 14:55:00;;;;;;;0.10;0.10;;;;;;;;;;5029486;28;20208;-70
2021/03/24 14:57:28;;;;;;;0.70;0.60;;;;;;;;;;5048714;28;20179;-70
2021/03/24 14:59:54;;;;;;;0.30;0.30;;;;;;;;;;5031008;28;20161;-70
2021/03/24 15:02:29;;;;;;;0.10;0.10;;;;;;;;;;5030979;28;20161;-70
2021/03/24 15:05:02;;;;;;;0.10;0.10;;;;;;;;;;5030045;28;20180;-70
2021/03/24 15:07:29;;;;;;;0.20;0.20;;;;;;;;;;5030795;28;20172;-70
2021/03/24 15:10:10;;;;;;;0.13;0.13;;;;;;;;;;5048372;28;20396;-71
2021/03/24 15:12:38;;;;;;;0.13;0.13;;;;;;;;;;5048455;28;20224;-70
2021/03/24 15:15:11;;;;;;;0.10;0.10;;;;;;;;;;5030282;28;20188;-70
2021/03/24 15:17:48;;;;;;;0.13;0.13;;;;;;;;;;5047966;28;20188;-70
2021/03/24 15:20:30;;;;;;;0.10;0.10;;;;;;;;;;5046581;28;20200;-70
2021/03/24 15:23:02;;;;;;;0.30;0.30;;;;;;;;;;5044295;28;20343;-69